createdAt,value
2018-06-30T00:01:32.102Z,99.90
2018-06-30T00:04:00.244Z,99.90
2018-06-30T00:06:29.328Z,99.90
2018-06-30T00:08:57.707Z,99.90
2018-06-30T00:11:26.023Z,99.90
2018-06-30T00:13:55.222Z,99.90
2018-06-30T00:16:23.491Z,99.90
2018-06-30T00:18:51.649Z,99.90
2018-06-30T00:21:19.643Z,99.90
2018-06-30T00:23:47.769Z,99.90
2018-06-30T00:26:15.864Z,99.90
2018-06-30T00:28:44.022Z,99.90
2018-06-30T00:31:12.191Z,99.90
2018-06-30T00:33:40.255Z,99.90
2018-06-30T00:38:36.374Z,99.90
2018-06-30T00:41:04.488Z,99.90
2018-06-30T00:43:33.024Z,99.90
2018-06-30T00:46:01.043Z,99.90
2018-06-30T00:48:29.125Z,99.90
2018-06-30T00:50:57.281Z,99.90
2018-06-30T00:53:25.396Z,99.90
2018-06-30T00:55:53.536Z,99.90
2018-06-30T00:58:21.670Z,99.90
2018-06-30T01:00:49.639Z,99.90
2018-06-30T01:03:17.891Z,99.90
2018-06-30T01:08:14.038Z,99.90
2018-06-30T01:10:43.107Z,99.90
2018-06-30T01:13:11.247Z,99.90
2018-06-30T01:15:39.231Z,99.90
2018-06-30T01:20:35.267Z,99.90
2018-06-30T01:23:03.334Z,99.90
2018-06-30T01:25:31.483Z,99.90
2018-06-30T01:27:59.491Z,99.90
2018-06-30T01:30:27.571Z,99.90
2018-06-30T01:32:55.627Z,99.90
2018-06-30T01:35:24.264Z,99.90
2018-06-30T01:37:52.568Z,99.90
2018-06-30T01:40:20.588Z,99.90
2018-06-30T01:42:50.980Z,99.90
2018-06-30T01:45:19.116Z,99.90
2018-06-30T01:52:43.522Z,99.90
2018-06-30T01:55:11.823Z,99.90
2018-06-30T01:57:39.847Z,99.90
2018-06-30T02:00:07.857Z,99.90
2018-06-30T02:02:36.702Z,99.90
2018-06-30T02:05:04.736Z,99.90
2018-06-30T02:07:32.976Z,99.90
2018-06-30T02:10:01.093Z,99.90
2018-06-30T02:14:57.146Z,99.90
2018-06-30T02:17:25.135Z,99.90
2018-06-30T02:22:22.261Z,99.90
2018-06-30T02:24:50.280Z,99.90
2018-06-30T02:27:18.541Z,99.90
2018-06-30T02:29:46.803Z,99.90
2018-06-30T02:32:16.052Z,99.90
2018-06-30T02:34:44.237Z,99.90
2018-06-30T02:37:12.271Z,99.90
2018-06-30T02:42:08.399Z,99.90
2018-06-30T02:44:36.432Z,99.90
2018-06-30T02:47:04.506Z,99.90
2018-06-30T02:52:01.208Z,99.90
2018-06-30T02:54:29.296Z,99.90
2018-06-30T02:56:57.352Z,99.90
2018-06-30T02:59:25.995Z,99.90
2018-06-30T03:01:54.176Z,99.90
2018-06-30T03:04:22.284Z,99.90
2018-06-30T03:06:50.491Z,99.90
2018-06-30T03:09:18.608Z,99.90
2018-06-30T03:14:14.621Z,99.90
2018-06-30T03:16:42.654Z,99.90
2018-06-30T03:19:11.733Z,99.90
2018-06-30T03:21:39.908Z,99.90
2018-06-30T03:24:07.876Z,99.90
2018-06-30T03:26:36.101Z,99.90
2018-06-30T03:31:46.356Z,99.90
2018-06-30T03:34:14.544Z,99.90
2018-06-30T03:36:42.697Z,99.90
2018-06-30T03:39:11.793Z,99.90
2018-06-30T03:41:39.832Z,99.90
2018-06-30T03:44:08.188Z,99.90
2018-06-30T03:46:36.201Z,99.90
2018-06-30T03:49:05.052Z,99.90
2018-06-30T03:51:33.160Z,99.90
2018-06-30T03:54:01.177Z,99.90
2018-06-30T03:56:29.350Z,99.90
2018-06-30T03:58:58.074Z,99.90
2018-06-30T04:01:26.277Z,99.90
2018-06-30T04:03:54.335Z,99.90
2018-06-30T04:06:22.380Z,99.90
2018-06-30T04:11:18.673Z,99.90
2018-06-30T04:13:46.730Z,99.90
2018-06-30T04:16:15.197Z,99.90
2018-06-30T04:18:43.168Z,99.90
2018-06-30T04:21:11.415Z,99.90
2018-06-30T04:23:39.640Z,99.90
2018-06-30T04:26:07.782Z,99.90
2018-06-30T04:28:35.822Z,99.90
2018-06-30T04:31:03.860Z,99.90
2018-06-30T04:33:32.933Z,99.90
2018-06-30T04:36:01.003Z,99.90
2018-06-30T04:38:29.153Z,99.90
2018-06-30T04:40:57.259Z,99.90
2018-06-30T04:43:25.227Z,99.90
2018-06-30T04:48:27.728Z,99.90
2018-06-30T04:50:55.824Z,99.90
2018-06-30T04:53:23.802Z,99.90
2018-06-30T04:55:51.769Z,99.90
2018-06-30T04:58:19.909Z,99.90
2018-06-30T05:00:47.987Z,99.90
2018-06-30T05:03:17.019Z,99.90
2018-06-30T05:05:45.220Z,99.90
2018-06-30T05:10:41.000Z,99.90
2018-06-30T05:13:09.299Z,99.90
2018-06-30T05:15:37.425Z,99.90
2018-06-30T05:18:05.459Z,99.90
2018-06-30T05:20:33.423Z,99.90
2018-06-30T05:27:58.144Z,99.90
2018-06-30T05:30:26.236Z,99.90
2018-06-30T05:32:54.370Z,99.90
2018-06-30T05:35:22.515Z,99.70
2018-06-30T05:37:50.562Z,99.60
2018-06-30T05:40:19.337Z,99.40
2018-06-30T05:42:47.374Z,99.70
2018-06-30T05:45:15.652Z,99.10
2018-06-30T05:47:43.716Z,98.60
2018-06-30T05:50:12.499Z,98.40
2018-06-30T05:52:40.471Z,98.10
2018-06-30T05:57:36.561Z,97.30
2018-06-30T06:00:04.888Z,95.50
2018-06-30T06:02:34.160Z,95.60
2018-06-30T06:05:02.856Z,95.60
2018-06-30T06:07:31.655Z,94.90
2018-06-30T06:09:59.940Z,94.50
2018-06-30T06:12:27.852Z,93.80
2018-06-30T06:14:56.011Z,92.80
2018-06-30T06:17:23.983Z,93.00
2018-06-30T06:22:20.403Z,92.40
2018-06-30T06:24:48.372Z,91.40
2018-06-30T06:27:16.483Z,91.20
2018-06-30T06:29:44.596Z,91.50
2018-06-30T06:32:12.709Z,91.80
2018-06-30T06:34:41.757Z,90.90
2018-06-30T06:37:09.856Z,90.80
2018-06-30T06:39:37.956Z,90.10
2018-06-30T06:42:05.982Z,90.00
2018-06-30T06:44:34.554Z,90.30
2018-06-30T06:47:02.584Z,90.60
2018-06-30T06:49:30.833Z,90.70
2018-06-30T06:51:58.946Z,90.70
2018-06-30T06:54:27.132Z,90.60
2018-06-30T06:56:55.302Z,90.30
2018-06-30T06:59:23.501Z,90.30
2018-06-30T07:01:51.619Z,89.60
2018-06-30T07:04:20.944Z,89.40
2018-06-30T07:06:49.724Z,89.20
2018-06-30T07:09:17.980Z,88.30
2018-06-30T07:11:46.017Z,88.50
2018-06-30T07:14:25.523Z,87.50
2018-06-30T07:16:53.516Z,87.30
2018-06-30T07:19:21.815Z,85.60
2018-06-30T07:21:50.442Z,85.30
2018-06-30T07:24:18.827Z,83.80
2018-06-30T07:26:47.525Z,83.20
2018-06-30T07:29:18.035Z,79.60
2018-06-30T07:31:46.013Z,75.40
2018-06-30T07:34:14.302Z,74.70
2018-06-30T07:36:42.366Z,74.20
2018-06-30T07:39:10.476Z,71.20
2018-06-30T07:41:39.732Z,71.00
2018-06-30T07:44:07.769Z,70.60
2018-06-30T07:46:36.704Z,70.10
2018-06-30T07:49:05.248Z,68.50
2018-06-30T07:51:33.399Z,67.70
2018-06-30T07:54:01.347Z,67.40
2018-06-30T07:56:30.114Z,67.60
2018-06-30T07:58:58.754Z,67.10
2018-06-30T08:01:26.905Z,66.50
2018-06-30T08:03:54.925Z,65.50
2018-06-30T08:06:22.980Z,63.70
2018-06-30T08:08:50.955Z,63.30
2018-06-30T08:11:19.097Z,62.40
2018-06-30T08:13:47.316Z,62.90
2018-06-30T08:18:43.291Z,62.40
2018-06-30T08:23:39.234Z,60.40
2018-06-30T08:26:09.459Z,60.70
2018-06-30T08:28:38.090Z,60.50
2018-06-30T08:31:07.686Z,60.40
2018-06-30T08:33:35.929Z,59.80
2018-06-30T08:36:03.976Z,59.60
2018-06-30T08:38:31.985Z,59.80
2018-06-30T08:41:00.352Z,59.70
2018-06-30T08:45:56.300Z,59.00
2018-06-30T08:48:24.993Z,58.80
2018-06-30T08:50:54.072Z,59.30
2018-06-30T08:53:22.302Z,59.20
2018-06-30T08:58:18.444Z,57.90
2018-06-30T09:00:47.732Z,58.30
2018-06-30T09:03:16.955Z,57.10
2018-06-30T09:05:45.374Z,57.00
2018-06-30T09:08:13.564Z,57.30
2018-06-30T09:10:42.235Z,56.80
2018-06-30T09:13:11.327Z,55.10
2018-06-30T09:15:40.582Z,54.80
2018-06-30T09:18:08.605Z,54.30
2018-06-30T09:20:36.682Z,54.00
2018-06-30T09:23:05.909Z,54.00
2018-06-30T09:25:34.102Z,54.50
2018-06-30T09:28:02.231Z,54.50
2018-06-30T09:30:31.275Z,53.70
2018-06-30T09:35:27.290Z,52.40
2018-06-30T09:37:55.355Z,52.70
2018-06-30T09:40:23.380Z,52.90
2018-06-30T09:42:51.551Z,52.30
2018-06-30T09:45:19.777Z,51.80
2018-06-30T09:50:15.605Z,51.80
2018-06-30T09:52:43.567Z,53.60
2018-06-30T09:55:11.790Z,53.30
2018-06-30T09:57:39.927Z,53.30
2018-06-30T10:00:08.721Z,53.30
2018-06-30T10:02:36.833Z,53.70
2018-06-30T10:05:05.015Z,53.70
2018-06-30T10:07:33.088Z,52.90
2018-06-30T10:10:01.510Z,53.10
2018-06-30T10:12:29.607Z,51.70
2018-06-30T10:14:57.659Z,51.10
2018-06-30T10:17:28.996Z,51.30
2018-06-30T10:19:56.943Z,50.30
2018-06-30T10:22:25.570Z,50.60
2018-06-30T10:24:54.867Z,51.20
2018-06-30T10:29:50.758Z,50.00
2018-06-30T10:32:20.115Z,49.50
2018-06-30T10:34:48.151Z,49.40
2018-06-30T10:37:17.163Z,49.70
2018-06-30T10:39:46.918Z,49.00
2018-06-30T10:42:15.448Z,48.80
2018-06-30T10:44:43.501Z,49.10
2018-06-30T10:47:11.746Z,49.30
2018-06-30T10:49:40.195Z,49.50
2018-06-30T10:52:08.175Z,49.80
2018-06-30T10:54:36.210Z,49.10
2018-06-30T10:57:04.483Z,49.10
2018-06-30T11:02:00.612Z,48.30
2018-06-30T11:04:28.673Z,47.50
2018-06-30T11:06:56.733Z,46.90
2018-06-30T11:09:26.080Z,46.30
2018-06-30T11:11:54.351Z,46.00
2018-06-30T11:14:22.347Z,45.70
2018-06-30T11:16:50.370Z,46.60
2018-06-30T11:21:47.130Z,45.80
2018-06-30T11:26:49.668Z,45.80
2018-06-30T11:29:17.809Z,45.90
2018-06-30T11:31:45.783Z,46.20
2018-06-30T11:34:14.123Z,46.20
2018-06-30T11:36:42.145Z,45.90
2018-06-30T11:41:40.329Z,45.70
2018-06-30T11:46:37.654Z,46.90
2018-06-30T11:49:05.881Z,47.10
2018-06-30T11:51:33.911Z,47.60
2018-06-30T11:54:02.058Z,48.10
2018-06-30T11:56:30.439Z,47.90
2018-06-30T11:59:00.236Z,47.60
2018-06-30T12:01:28.236Z,47.30
2018-06-30T12:03:56.436Z,46.70
2018-06-30T12:06:28.973Z,46.10
2018-06-30T12:11:25.281Z,46.20
2018-06-30T12:13:53.276Z,46.40
2018-06-30T12:16:21.492Z,46.70
2018-06-30T12:18:49.703Z,47.40
2018-06-30T12:21:17.675Z,48.10
2018-06-30T12:23:45.851Z,49.00
2018-06-30T12:26:14.175Z,48.40
2018-06-30T12:28:44.755Z,48.10
2018-06-30T12:31:12.953Z,48.20
2018-06-30T12:33:40.983Z,48.60
2018-06-30T12:36:10.571Z,48.90
2018-06-30T12:38:38.559Z,49.20
2018-06-30T12:41:10.989Z,49.10
2018-06-30T12:43:39.054Z,49.30
2018-06-30T12:46:07.211Z,48.60
2018-06-30T12:48:35.331Z,46.80
2018-06-30T12:51:03.470Z,45.80
2018-06-30T12:53:31.460Z,44.70
2018-06-30T12:55:59.705Z,44.90
2018-06-30T12:58:28.286Z,45.80
2018-06-30T13:03:25.251Z,45.80
2018-06-30T13:05:53.243Z,45.90
2018-06-30T13:08:22.457Z,46.10
2018-06-30T13:13:18.319Z,47.00
2018-06-30T13:18:14.644Z,45.90
2018-06-30T13:20:42.771Z,45.00
2018-06-30T13:23:11.337Z,44.50
2018-06-30T13:25:39.337Z,44.10
2018-06-30T13:28:09.229Z,43.70
2018-06-30T13:30:37.956Z,43.90
2018-06-30T13:33:05.933Z,44.20
2018-06-30T13:35:33.935Z,44.70
2018-06-30T13:38:04.880Z,45.10
2018-06-30T13:40:34.233Z,44.80
2018-06-30T13:43:02.244Z,44.30
2018-06-30T13:45:30.232Z,44.30
2018-06-30T13:48:02.296Z,44.70
2018-06-30T13:50:31.713Z,45.00
2018-06-30T13:52:59.792Z,44.30
2018-06-30T13:55:28.628Z,43.60
2018-06-30T13:57:56.848Z,43.20
2018-06-30T14:00:27.764Z,44.20
2018-06-30T14:02:57.969Z,44.70
2018-06-30T14:05:26.559Z,45.10
2018-06-30T14:07:54.914Z,44.50
2018-06-30T14:10:23.693Z,45.10
2018-06-30T14:12:52.166Z,45.50
2018-06-30T14:15:20.775Z,46.00
2018-06-30T14:17:49.374Z,46.80
2018-06-30T14:20:19.389Z,47.10
2018-06-30T14:22:47.408Z,46.70
2018-06-30T14:25:16.196Z,45.70
2018-06-30T14:27:44.747Z,46.30
2018-06-30T14:32:43.976Z,45.70
2018-06-30T14:35:12.924Z,44.90
2018-06-30T14:37:42.167Z,45.00
2018-06-30T14:40:11.190Z,44.60
2018-06-30T14:42:43.609Z,44.80
2018-06-30T14:45:11.816Z,44.20
2018-06-30T14:47:40.392Z,44.40
2018-06-30T14:52:36.578Z,44.70
2018-06-30T14:55:10.096Z,43.80
2018-06-30T14:57:38.230Z,43.20
2018-06-30T15:00:07.736Z,43.80
2018-06-30T15:02:35.843Z,43.90
2018-06-30T15:05:04.080Z,44.00
2018-06-30T15:07:33.081Z,43.70
2018-06-30T15:10:01.410Z,43.10
2018-06-30T15:12:30.486Z,43.30
2018-06-30T15:14:58.527Z,44.20
2018-06-30T15:17:32.765Z,44.50
2018-06-30T15:20:02.291Z,44.90
2018-06-30T15:22:30.701Z,44.70
2018-06-30T15:24:58.988Z,43.40
2018-06-30T15:27:27.340Z,42.50
2018-06-30T15:29:55.508Z,42.50
2018-06-30T15:32:27.417Z,43.80
2018-06-30T15:34:55.897Z,45.10
2018-06-30T15:37:24.198Z,45.00
2018-06-30T15:39:52.382Z,45.30
2018-06-30T15:42:20.719Z,45.50
2018-06-30T15:44:48.948Z,45.60
2018-06-30T15:47:18.836Z,43.90
2018-06-30T15:49:49.901Z,40.10
2018-06-30T15:52:18.051Z,37.70
2018-06-30T15:54:46.294Z,36.70
2018-06-30T15:57:20.324Z,33.60
2018-06-30T15:59:48.762Z,32.00
2018-06-30T16:02:17.082Z,31.10
2018-06-30T16:04:47.182Z,32.00
2018-06-30T16:07:16.453Z,34.50
2018-06-30T16:12:16.001Z,38.90
2018-06-30T16:14:44.336Z,39.60
2018-06-30T16:17:12.508Z,39.80
2018-06-30T16:19:43.763Z,39.80
2018-06-30T16:22:12.566Z,37.70
2018-06-30T16:24:41.419Z,35.50
2018-06-30T16:27:09.915Z,33.20
2018-06-30T16:29:37.999Z,30.50
2018-06-30T16:32:06.194Z,29.30
2018-06-30T16:34:34.256Z,28.50
2018-06-30T16:37:03.725Z,29.00
2018-06-30T16:39:32.990Z,28.40
2018-06-30T16:42:01.121Z,27.60
2018-06-30T16:44:29.318Z,26.40
2018-06-30T16:47:00.521Z,26.10
2018-06-30T16:49:29.080Z,26.10
2018-06-30T16:51:57.773Z,25.60
2018-06-30T16:54:27.485Z,26.10
2018-06-30T16:56:56.112Z,25.40
2018-06-30T16:59:25.628Z,25.10
2018-06-30T17:01:53.920Z,24.60
2018-06-30T17:04:29.183Z,24.30
2018-06-30T17:06:57.483Z,24.30
2018-06-30T17:09:25.757Z,24.40
2018-06-30T17:11:53.952Z,24.40
2018-06-30T17:14:22.648Z,24.60
2018-06-30T17:16:55.629Z,24.90
2018-06-30T17:19:23.769Z,25.40
2018-06-30T17:21:52.165Z,25.20
2018-06-30T17:24:20.350Z,25.70
2018-06-30T17:26:50.266Z,25.20
2018-06-30T17:29:18.346Z,25.10
2018-06-30T17:31:46.430Z,24.90
2018-06-30T17:34:15.267Z,24.80
2018-06-30T17:36:43.276Z,25.50
2018-06-30T17:39:11.495Z,25.00
2018-06-30T17:41:40.882Z,25.40
2018-06-30T17:44:10.035Z,25.50
2018-06-30T17:46:38.312Z,25.30
2018-06-30T17:49:06.827Z,25.30
2018-06-30T17:51:34.826Z,25.40
2018-06-30T17:54:03.188Z,25.80
2018-06-30T17:56:31.507Z,25.70
2018-06-30T17:58:59.565Z,26.50
2018-06-30T18:01:31.312Z,27.10
2018-06-30T18:03:59.539Z,27.30
2018-06-30T18:06:27.968Z,26.90
2018-06-30T18:08:55.964Z,27.00
2018-06-30T18:11:24.228Z,27.50
2018-06-30T18:13:59.882Z,27.60
2018-06-30T18:16:28.108Z,28.00
2018-06-30T18:18:56.335Z,28.00
2018-06-30T18:21:24.442Z,28.60
2018-06-30T18:23:53.578Z,29.10
2018-06-30T18:26:21.652Z,29.20
2018-06-30T18:31:21.339Z,28.80
2018-06-30T18:33:49.625Z,28.90
2018-06-30T18:36:17.826Z,29.20
2018-06-30T18:38:46.805Z,29.40
2018-06-30T18:41:17.338Z,29.80
2018-06-30T18:46:15.593Z,32.10
2018-06-30T18:48:46.591Z,33.90
2018-06-30T18:51:14.840Z,35.80
2018-06-30T18:56:16.435Z,39.70
2018-06-30T19:01:12.471Z,42.20
2018-06-30T19:03:43.187Z,42.90
2018-06-30T19:06:11.213Z,43.80
2018-06-30T19:08:39.271Z,44.70
2018-06-30T19:11:08.760Z,45.30
2018-06-30T19:13:36.948Z,45.90
2018-06-30T19:16:05.272Z,46.50
2018-06-30T19:18:33.537Z,46.90
2018-06-30T19:21:01.887Z,47.50
2018-06-30T19:23:30.076Z,48.00
2018-06-30T19:25:58.291Z,48.40
2018-06-30T19:28:26.626Z,48.60
2018-06-30T19:30:54.672Z,49.30
2018-06-30T19:33:24.083Z,49.30
2018-06-30T19:35:53.240Z,49.70
2018-06-30T19:38:22.255Z,49.90
2018-06-30T19:40:51.292Z,50.00
2018-06-30T19:43:19.334Z,50.40
2018-06-30T19:45:47.405Z,50.60
2018-06-30T19:48:15.806Z,50.80
2018-06-30T19:50:45.963Z,50.90
2018-06-30T19:53:15.214Z,51.10
2018-06-30T19:55:46.982Z,51.50
2018-06-30T19:58:15.202Z,51.80
2018-06-30T20:03:11.161Z,52.10
2018-06-30T20:05:41.766Z,52.00
2018-06-30T20:08:09.777Z,52.30
2018-06-30T20:10:37.898Z,52.10
2018-06-30T20:15:34.126Z,52.20
2018-06-30T20:20:30.757Z,52.40
2018-06-30T20:22:59.311Z,52.50
2018-06-30T20:25:27.410Z,52.40
2018-06-30T20:27:56.587Z,52.50
2018-06-30T20:32:52.770Z,53.40
2018-06-30T20:35:20.841Z,53.20
2018-06-30T20:37:50.029Z,53.30
2018-06-30T20:40:18.139Z,53.50
2018-06-30T20:42:47.741Z,53.60
2018-06-30T20:45:15.852Z,53.90
2018-06-30T20:47:43.858Z,54.20
2018-06-30T20:50:11.959Z,54.50
2018-06-30T20:55:08.071Z,54.80
2018-06-30T20:57:36.040Z,55.00
2018-06-30T21:00:05.111Z,55.30
2018-06-30T21:02:33.237Z,55.40
2018-06-30T21:05:05.110Z,55.60
2018-06-30T21:07:33.362Z,55.90
2018-06-30T21:10:01.565Z,56.10
2018-06-30T21:12:30.086Z,56.30
2018-06-30T21:14:58.237Z,56.50
2018-06-30T21:17:26.590Z,56.70
2018-06-30T21:19:54.829Z,56.90
2018-06-30T21:22:22.828Z,57.30
2018-06-30T21:24:51.038Z,57.90
2018-06-30T21:27:19.182Z,58.00
2018-06-30T21:29:49.547Z,58.40
2018-06-30T21:32:18.837Z,58.80
2018-06-30T21:34:47.647Z,59.30
2018-06-30T21:37:16.560Z,59.70
2018-06-30T21:39:44.860Z,60.00
2018-06-30T21:42:12.983Z,60.60
2018-06-30T21:44:41.067Z,61.40
2018-06-30T21:47:09.259Z,61.80
2018-06-30T21:52:05.307Z,63.20
2018-06-30T21:54:33.684Z,63.90
2018-06-30T21:57:02.058Z,64.60
2018-06-30T21:59:30.169Z,65.20
2018-06-30T22:01:59.048Z,65.80
2018-06-30T22:04:27.063Z,66.40
2018-06-30T22:06:55.953Z,66.80
2018-06-30T22:09:24.153Z,67.50
2018-06-30T22:11:52.366Z,68.30
2018-06-30T22:16:48.262Z,69.70
2018-06-30T22:19:16.791Z,70.70
2018-06-30T22:21:44.820Z,71.20
2018-06-30T22:24:13.034Z,71.70
2018-06-30T22:26:41.569Z,72.60
2018-06-30T22:29:09.864Z,73.30
2018-06-30T22:31:38.010Z,73.90
2018-06-30T22:34:06.331Z,74.80
2018-06-30T22:36:34.375Z,75.30
2018-06-30T22:43:58.213Z,77.00
2018-06-30T22:46:26.313Z,77.40
2018-06-30T22:48:54.415Z,77.90
2018-06-30T22:51:22.369Z,78.70
2018-06-30T22:53:50.596Z,79.00
2018-06-30T22:56:18.590Z,79.30
2018-06-30T22:58:46.741Z,80.10
2018-06-30T23:01:14.812Z,80.70
2018-06-30T23:03:42.925Z,81.30
2018-06-30T23:06:10.977Z,82.10
2018-06-30T23:08:44.344Z,82.70
2018-06-30T23:11:12.351Z,83.30
2018-06-30T23:16:08.260Z,84.20
2018-06-30T23:18:36.265Z,85.50
2018-06-30T23:21:04.233Z,85.40
2018-06-30T23:23:32.195Z,86.10
2018-06-30T23:26:00.321Z,86.70
2018-06-30T23:28:28.425Z,87.50
2018-06-30T23:30:56.415Z,88.20
2018-06-30T23:33:24.469Z,89.00
2018-06-30T23:35:52.537Z,89.50
2018-06-30T23:38:20.559Z,89.80
2018-06-30T23:40:48.600Z,90.20
2018-06-30T23:43:16.889Z,90.60
2018-06-30T23:45:44.903Z,90.90
2018-06-30T23:48:13.090Z,90.70
2018-06-30T23:53:09.418Z,91.00
2018-06-30T23:55:37.566Z,91.20
2018-06-30T23:58:06.993Z,91.40
